KVEL/VEL METAR and TAF weather

Enter ICAO airport designator
Station Type Date Time Source
KVEL METAR 2020/11/25 21:53 UTC NOAA

KVEL 252153Z AUTO 00000KT 10SM CLR 06/M08 A2995 RMK AO2 SLP156 T00611078


Station Type Date Time Source
KVEL Decoded METAR 2020/11/25 21:53 UTC NOAA

VERNAL AIRPORT, UT, United States (KVEL) 40-26N 109-30W 1604M
Nov 25, 2020 - 04:53 PM EST / 2020.11.25 2153 UTC
Wind: Calm:0
Visibility: 10 mile(s):0
Sky conditions: clear
Temperature: 43.0 F (6.1 C)
Dew Point: 18.0 F (-7.8 C)
Relative Humidity: 36%
Pressure (altimeter): 29.95 in. Hg (1014 hPa)
ob: KVEL 252153Z AUTO 00000KT 10SM CLR 06/M08 A2995 RMK AO2 SLP156 T00611078
cycle: 22

Station Type Date Time Source
KVEL TAF 2020/11/25 18:22 UTC NOAA

TAF KVEL 251720Z 2518/2618 VRB03KT P6SM SKC
FM260200 30005KT P6SM FEW120 SCT150 BKN200
FM261200 36006KT P6SM SCT060 BKN090
FM261700 04008KT P6SM SCT060 SCT100

Example: see airport list